createdAt,value
2022-11-15T00:00:48.091Z,86306.25
2022-11-15T00:03:33.949Z,86300.72
2022-11-15T00:06:19.625Z,86291.00
2022-11-15T00:09:05.107Z,86289.59
2022-11-15T00:11:50.164Z,86322.91
2022-11-15T00:14:35.518Z,86256.16
2022-11-15T00:17:21.007Z,86311.88
2022-11-15T00:20:06.825Z,86262.53
2022-11-15T00:22:52.165Z,86299.91
2022-11-15T00:25:37.515Z,86285.97
2022-11-15T00:28:22.913Z,86305.59
2022-11-15T00:31:12.433Z,86293.84
2022-11-15T00:33:57.909Z,86286.91
2022-11-15T00:36:43.203Z,86302.22
2022-11-15T00:39:28.727Z,86290.50
2022-11-15T00:42:14.312Z,86289.16
2022-11-15T00:44:59.605Z,86293.91
2022-11-15T00:47:47.360Z,86260.16
2022-11-15T00:50:33.115Z,86283.75
2022-11-15T00:53:18.904Z,86268.44
2022-11-15T00:56:04.879Z,86285.03
2022-11-15T00:58:50.452Z,86278.84
2022-11-15T01:01:36.001Z,86253.16
2022-11-15T01:04:20.957Z,86277.28
2022-11-15T01:07:06.612Z,86242.72
2022-11-15T01:09:52.063Z,86244.09
2022-11-15T01:12:37.917Z,86229.47
2022-11-15T01:15:23.096Z,86268.19
2022-11-15T01:18:08.846Z,86251.47
2022-11-15T01:20:54.405Z,86266.88
2022-11-15T01:23:40.727Z,86257.03
2022-11-15T01:26:26.619Z,86259.09
2022-11-15T01:29:12.035Z,86265.25
2022-11-15T01:31:57.599Z,86245.13
2022-11-15T01:34:42.994Z,86263.97
2022-11-15T01:37:28.368Z,86263.22
2022-11-15T01:40:13.957Z,86245.97
2022-11-15T01:42:59.520Z,86248.09
2022-11-15T01:45:46.660Z,86255.06
2022-11-15T01:48:35.076Z,86252.41
2022-11-15T01:51:23.153Z,86259.25
2022-11-15T01:54:13.587Z,86246.78
2022-11-15T01:57:04.622Z,86227.38
2022-11-15T01:59:50.055Z,86242.72
2022-11-15T02:02:38.195Z,86221.81
2022-11-15T02:05:23.781Z,86246.72
2022-11-15T02:08:21.114Z,86252.28
2022-11-15T02:11:10.318Z,86249.53
2022-11-15T02:13:57.931Z,86230.16
2022-11-15T02:17:01.226Z,86245.34
2022-11-15T02:20:21.009Z,86252.16
2022-11-15T02:23:49.355Z,86250.81
2022-11-15T02:26:50.083Z,86243.19
2022-11-15T02:30:05.041Z,86243.91
2022-11-15T02:33:04.277Z,86245.28
2022-11-15T02:35:49.909Z,86244.09
2022-11-15T02:38:38.238Z,86241.25
2022-11-15T02:41:39.287Z,86235.91
2022-11-15T02:44:36.390Z,86225.97
2022-11-15T02:47:23.502Z,86228.28
2022-11-15T02:50:13.445Z,86229.53
2022-11-15T02:52:59.119Z,86228.16
2022-11-15T02:55:52.253Z,86221.84
2022-11-15T02:58:57.581Z,86212.63
2022-11-15T03:02:02.039Z,86230.25
2022-11-15T03:04:50.677Z,86227.91
2022-11-15T03:07:58.183Z,86220.31
2022-11-15T03:11:08.344Z,86225.00
2022-11-15T03:14:09.007Z,86228.53
2022-11-15T03:17:15.219Z,86206.38
2022-11-15T03:20:05.127Z,86232.75
2022-11-15T03:22:52.250Z,86228.69
2022-11-15T03:25:44.869Z,86226.56
2022-11-15T03:28:56.733Z,86235.47
2022-11-15T03:31:50.895Z,86209.16
2022-11-15T03:34:51.058Z,86227.88
2022-11-15T03:37:39.254Z,86221.75
2022-11-15T03:40:37.520Z,86214.91
2022-11-15T03:43:44.245Z,86216.19
2022-11-15T03:46:48.908Z,86209.97
2022-11-15T03:49:36.630Z,86184.50
2022-11-15T03:52:23.414Z,86207.97
2022-11-15T03:55:14.073Z,86201.78
2022-11-15T03:58:01.331Z,86209.31
2022-11-15T04:00:47.081Z,86203.75
2022-11-15T04:03:32.695Z,86206.66
2022-11-15T04:06:18.531Z,86199.91
2022-11-15T04:09:04.372Z,86186.06
2022-11-15T04:11:50.004Z,86184.69
2022-11-15T04:14:35.574Z,86177.66
2022-11-15T04:17:21.000Z,86178.38
2022-11-15T04:20:36.917Z,86165.19
2022-11-15T04:23:42.677Z,86184.59
2022-11-15T04:26:28.252Z,86162.41
2022-11-15T04:29:32.122Z,86155.47
2022-11-15T04:32:17.730Z,86192.16
2022-11-15T04:35:03.322Z,86188.66
2022-11-15T04:37:49.592Z,86190.13
2022-11-15T04:40:35.649Z,86158.84
2022-11-15T04:43:21.301Z,86151.34
2022-11-15T04:46:06.796Z,86151.75
2022-11-15T04:48:58.284Z,86130.34
2022-11-15T04:51:44.393Z,86147.06
2022-11-15T04:54:30.270Z,86185.91
2022-11-15T04:57:15.967Z,86127.84
2022-11-15T05:00:01.171Z,86159.56
2022-11-15T05:03:05.223Z,86165.88
2022-11-15T05:05:50.893Z,86154.00
2022-11-15T05:08:36.369Z,86184.56
2022-11-15T05:11:22.859Z,86187.25
2022-11-15T05:14:08.447Z,86158.16
2022-11-15T05:16:54.021Z,86144.38
2022-11-15T05:19:39.599Z,86172.88
2022-11-15T05:22:25.179Z,86180.38
2022-11-15T05:25:10.806Z,86176.88
2022-11-15T05:27:56.498Z,86177.53
2022-11-15T05:30:42.094Z,86173.28
2022-11-15T05:33:27.693Z,86152.03
2022-11-15T05:36:13.718Z,86179.00
2022-11-15T05:38:59.156Z,86181.78
2022-11-15T05:41:47.120Z,86178.38
2022-11-15T05:44:33.165Z,86174.09
2022-11-15T05:47:23.706Z,86181.75
2022-11-15T05:50:15.479Z,86181.63
2022-11-15T05:53:05.291Z,86173.34
2022-11-15T05:55:51.032Z,86164.94
2022-11-15T05:58:37.737Z,86189.91
2022-11-15T06:01:25.851Z,86174.75
2022-11-15T06:04:11.173Z,86167.81
2022-11-15T06:06:56.995Z,86172.63
2022-11-15T06:09:42.879Z,86168.50
2022-11-15T06:12:28.408Z,86180.31
2022-11-15T06:15:13.741Z,86169.41
2022-11-15T06:18:00.255Z,86196.97
2022-11-15T06:20:45.528Z,86171.41
2022-11-15T06:23:35.856Z,86179.78
2022-11-15T06:26:21.418Z,86195.13
2022-11-15T06:29:07.011Z,86180.56
2022-11-15T06:31:52.462Z,86186.75
2022-11-15T06:34:37.985Z,86198.03
2022-11-15T06:37:23.394Z,86203.00
2022-11-15T06:40:10.655Z,86179.59
2022-11-15T06:43:00.528Z,86183.22
2022-11-15T06:45:46.308Z,86189.59
2022-11-15T06:48:33.184Z,86201.56
2022-11-15T06:51:18.725Z,86205.16
2022-11-15T06:54:04.198Z,86204.50
2022-11-15T06:56:49.902Z,86196.94
2022-11-15T06:59:40.283Z,86191.69
2022-11-15T07:02:26.485Z,86176.63
2022-11-15T07:05:12.651Z,86180.94
2022-11-15T07:07:59.649Z,86200.41
2022-11-15T07:10:45.299Z,86201.94
2022-11-15T07:13:36.399Z,86197.97
2022-11-15T07:16:22.229Z,86160.72
2022-11-15T07:19:09.478Z,86188.56
2022-11-15T07:21:54.846Z,86150.66
2022-11-15T07:24:40.376Z,86165.97
2022-11-15T07:27:25.749Z,86146.09
2022-11-15T07:30:15.313Z,86175.91
2022-11-15T07:33:01.885Z,86187.75
2022-11-15T07:35:50.072Z,86193.38
2022-11-15T07:38:42.549Z,86196.88
2022-11-15T07:41:27.967Z,86188.72
2022-11-15T07:44:13.540Z,86130.19
2022-11-15T07:46:59.267Z,86155.75
2022-11-15T07:49:45.002Z,86141.31
2022-11-15T07:52:30.752Z,86180.03
2022-11-15T07:55:16.083Z,86170.41
2022-11-15T07:58:05.945Z,86174.56
2022-11-15T08:00:51.371Z,86171.84
2022-11-15T08:03:37.224Z,86174.63
2022-11-15T08:06:22.660Z,86150.50
2022-11-15T08:09:08.216Z,86169.16
2022-11-15T08:11:53.846Z,86185.00
2022-11-15T08:14:39.643Z,86187.06
2022-11-15T08:17:25.420Z,86163.56
2022-11-15T08:20:11.484Z,86189.75
2022-11-15T08:23:01.921Z,86187.63
2022-11-15T08:25:47.854Z,86182.78
2022-11-15T08:28:33.881Z,86176.47
2022-11-15T08:31:20.022Z,86145.44
2022-11-15T08:34:06.806Z,86175.69
2022-11-15T08:36:52.192Z,86172.22
2022-11-15T08:39:39.019Z,86177.00
2022-11-15T08:42:24.252Z,86165.97
2022-11-15T08:45:10.577Z,86171.41
2022-11-15T08:47:57.005Z,86166.50
2022-11-15T08:50:44.734Z,86172.69
2022-11-15T08:53:30.433Z,86169.16
2022-11-15T08:56:16.717Z,86169.78
2022-11-15T08:59:02.410Z,86133.22
2022-11-15T09:01:47.929Z,86162.72
2022-11-15T09:04:33.628Z,86152.25
2022-11-15T09:07:19.338Z,86129.47
2022-11-15T09:10:05.356Z,86147.84
2022-11-15T09:12:51.074Z,86140.81
2022-11-15T09:15:36.474Z,86133.09
2022-11-15T09:18:23.490Z,86128.94
2022-11-15T09:21:09.727Z,86137.66
2022-11-15T09:23:55.479Z,86068.00
2022-11-15T09:29:41.344Z,86099.25
2022-11-15T09:32:36.259Z,86112.13
2022-11-15T09:35:24.493Z,86082.91
2022-11-15T09:38:09.990Z,86092.25
2022-11-15T09:41:12.898Z,86095.56
2022-11-15T09:44:26.069Z,86093.91
2022-11-15T09:47:36.729Z,86092.31
2022-11-15T09:50:47.912Z,86092.81
2022-11-15T09:53:50.727Z,86071.19
2022-11-15T09:56:27.036Z,86079.16
2022-11-15T09:59:15.612Z,86083.16
2022-11-15T10:02:19.818Z,86080.81
2022-11-15T10:04:47.155Z,86062.09
2022-11-15T10:07:42.828Z,86049.53
2022-11-15T10:10:09.600Z,86075.34
2022-11-15T10:12:36.594Z,86047.81
2022-11-15T10:15:11.623Z,86067.47
2022-11-15T10:17:55.236Z,86067.13
2022-11-15T10:20:26.312Z,86062.88
2022-11-15T10:23:01.204Z,86062.50
2022-11-15T10:25:29.703Z,86072.13
2022-11-15T10:28:02.221Z,86064.34
2022-11-15T10:30:37.008Z,86020.28
2022-11-15T10:33:16.557Z,86051.34
2022-11-15T10:35:43.750Z,86032.19
2022-11-15T10:38:12.633Z,86052.41
2022-11-15T10:43:27.365Z,86024.59
2022-11-15T10:45:54.406Z,86020.31
2022-11-15T10:48:24.333Z,86029.00
2022-11-15T10:50:53.242Z,86028.22
2022-11-15T10:53:25.144Z,86045.81
2022-11-15T10:55:56.305Z,86023.50
2022-11-15T10:58:41.272Z,86038.44
2022-11-15T11:01:12.565Z,86028.66
2022-11-15T11:03:41.799Z,86009.38
2022-11-15T11:06:12.439Z,86001.47
2022-11-15T11:08:39.914Z,85964.94
2022-11-15T11:11:08.705Z,85962.78
2022-11-15T11:13:40.627Z,86014.88
2022-11-15T11:16:22.988Z,85979.97
2022-11-15T11:18:55.678Z,85992.56
2022-11-15T11:21:39.594Z,85990.28
2022-11-15T11:24:33.270Z,85978.63
2022-11-15T11:27:13.728Z,85982.47
2022-11-15T11:29:49.582Z,85990.56
2022-11-15T11:32:44.253Z,85989.06
2022-11-15T11:35:21.142Z,85987.13
2022-11-15T11:37:55.978Z,85954.78
2022-11-15T11:40:44.475Z,85985.94
2022-11-15T11:43:30.251Z,85979.66
2022-11-15T11:46:32.011Z,85961.28
2022-11-15T11:49:23.027Z,85975.50
2022-11-15T11:51:56.982Z,85980.22
2022-11-15T11:54:41.449Z,85971.84
2022-11-15T11:57:23.532Z,85934.78
2022-11-15T12:00:21.335Z,85966.66
2022-11-15T12:03:19.518Z,85963.19
2022-11-15T12:05:55.577Z,85937.03
2022-11-15T12:08:40.136Z,85950.66
2022-11-15T12:11:24.287Z,85955.09
2022-11-15T12:13:59.384Z,85929.75
2022-11-15T12:16:34.447Z,85924.88
2022-11-15T12:19:03.647Z,85945.91
2022-11-15T12:21:40.888Z,85935.81
2022-11-15T12:24:26.454Z,85920.16
2022-11-15T12:27:00.231Z,85942.94
2022-11-15T12:29:30.332Z,85932.22
2022-11-15T12:32:00.981Z,85906.78
2022-11-15T12:34:43.060Z,85927.19
2022-11-15T12:37:41.736Z,85929.91
2022-11-15T12:40:19.476Z,85929.84
2022-11-15T12:43:02.584Z,85927.31
2022-11-15T12:45:29.589Z,85921.59
2022-11-15T12:48:19.562Z,85927.25
2022-11-15T12:50:55.380Z,85921.66
2022-11-15T12:53:25.531Z,85924.69
2022-11-15T12:56:21.299Z,85922.28
2022-11-15T12:58:51.161Z,85927.31
2022-11-15T13:01:44.485Z,85918.94
2022-11-15T13:04:14.413Z,85922.41
2022-11-15T13:06:47.852Z,85914.84
2022-11-15T13:09:30.232Z,85912.22
2022-11-15T13:11:58.880Z,85902.03
2022-11-15T13:14:38.003Z,85915.84
2022-11-15T13:17:20.166Z,85885.13
2022-11-15T13:19:49.819Z,85899.59
2022-11-15T13:22:35.573Z,85876.69
2022-11-15T13:25:02.901Z,85892.31
2022-11-15T13:27:30.127Z,85913.81
2022-11-15T13:29:57.066Z,85876.81
2022-11-15T13:32:24.275Z,85897.72
2022-11-15T13:34:53.934Z,85869.41
2022-11-15T13:37:20.859Z,85900.34
2022-11-15T13:39:51.329Z,85875.94
2022-11-15T13:42:20.256Z,85891.09
2022-11-15T13:44:59.741Z,85902.63
2022-11-15T13:47:29.050Z,85857.56
2022-11-15T13:49:59.043Z,85859.38
2022-11-15T13:52:34.079Z,85842.00
2022-11-15T13:55:09.224Z,85840.63
2022-11-15T13:57:38.914Z,85876.28
2022-11-15T14:00:23.699Z,85882.78
2022-11-15T14:02:51.115Z,85889.22
2022-11-15T14:05:24.760Z,85846.75
2022-11-15T14:08:14.639Z,85847.75
2022-11-15T14:10:41.541Z,85861.00
2022-11-15T14:13:32.409Z,85878.72
2022-11-15T14:16:20.946Z,85849.56
2022-11-15T14:18:49.344Z,85874.06
2022-11-15T14:21:19.153Z,85864.22
2022-11-15T14:23:46.795Z,85891.94
2022-11-15T14:26:36.274Z,85870.16
2022-11-15T14:29:28.109Z,85871.50
2022-11-15T14:32:08.072Z,85871.78
2022-11-15T14:34:35.005Z,85874.72
2022-11-15T14:37:01.836Z,85860.88
2022-11-15T14:39:29.143Z,85843.06
2022-11-15T14:41:56.031Z,85840.50
2022-11-15T14:44:23.225Z,85839.88
2022-11-15T14:46:50.087Z,85863.13
2022-11-15T14:49:17.412Z,85860.53
2022-11-15T14:51:44.418Z,85834.59
2022-11-15T14:54:11.889Z,85856.63
2022-11-15T14:56:38.760Z,85864.84
2022-11-15T14:59:05.747Z,85830.84
2022-11-15T15:01:33.192Z,85865.19
2022-11-15T15:04:00.567Z,85839.88
2022-11-15T15:06:27.810Z,85874.22
2022-11-15T15:08:54.917Z,85835.19
2022-11-15T15:11:25.067Z,85875.00
2022-11-15T15:13:53.211Z,85831.75
2022-11-15T15:16:20.864Z,85869.50
2022-11-15T15:18:47.821Z,85787.22
2022-11-15T15:21:20.809Z,85866.13
2022-11-15T15:23:47.908Z,85875.28
2022-11-15T15:26:14.908Z,85843.75
2022-11-15T15:28:42.195Z,85869.78
2022-11-15T15:31:10.872Z,85845.97
2022-11-15T15:33:38.520Z,85872.84
2022-11-15T15:36:06.322Z,85875.88
2022-11-15T15:38:33.565Z,85880.03
2022-11-15T15:41:02.982Z,85880.09
2022-11-15T15:43:30.025Z,85871.91
2022-11-15T15:45:56.924Z,85878.75
2022-11-15T15:48:23.869Z,85880.19
2022-11-15T15:50:50.861Z,85883.69
2022-11-15T15:53:18.487Z,85865.19
2022-11-15T15:55:45.400Z,85882.38
2022-11-15T15:58:12.286Z,85836.44
2022-11-15T16:00:39.923Z,85880.31
2022-11-15T16:03:06.950Z,85863.91
2022-11-15T16:05:34.018Z,85874.97
2022-11-15T16:08:01.071Z,85861.91
2022-11-15T16:10:30.687Z,85883.91
2022-11-15T16:12:58.784Z,85879.09
2022-11-15T16:15:29.323Z,85883.28
2022-11-15T16:18:01.075Z,85875.13
2022-11-15T16:20:50.593Z,85886.13
2022-11-15T16:23:21.081Z,85877.31
2022-11-15T16:25:54.356Z,85881.50
2022-11-15T16:28:33.459Z,85879.47
2022-11-15T16:31:04.202Z,85851.94
2022-11-15T16:33:31.600Z,85854.69
2022-11-15T16:35:58.931Z,85843.69
2022-11-15T16:38:26.242Z,85868.47
2022-11-15T16:40:53.277Z,85871.22
2022-11-15T16:43:20.281Z,85857.53
2022-11-15T16:45:47.348Z,85860.25
2022-11-15T16:48:26.213Z,85824.53
2022-11-15T16:50:57.539Z,85871.28
2022-11-15T16:53:25.948Z,85841.06
2022-11-15T16:55:53.262Z,85838.97
2022-11-15T16:58:22.073Z,85847.88
2022-11-15T17:00:57.145Z,85854.78
2022-11-15T17:03:25.081Z,85858.91
2022-11-15T17:05:52.255Z,85858.91
2022-11-15T17:08:21.935Z,85861.66
2022-11-15T17:10:49.105Z,85864.44
2022-11-15T17:13:16.143Z,85850.00
2022-11-15T17:15:43.514Z,85867.19
2022-11-15T17:18:15.583Z,85863.00
2022-11-15T17:20:43.550Z,85876.84
2022-11-15T17:23:15.054Z,85859.59
2022-11-15T17:25:42.405Z,85864.44
2022-11-15T17:28:10.207Z,85861.72
2022-11-15T17:30:37.110Z,85850.06
2022-11-15T17:33:05.268Z,85842.50
2022-11-15T17:35:32.212Z,85859.00
2022-11-15T17:37:59.090Z,85863.13
2022-11-15T17:40:26.047Z,85828.78
2022-11-15T17:42:53.463Z,85859.00
2022-11-15T17:45:20.343Z,85861.75
2022-11-15T17:47:47.230Z,85858.97
2022-11-15T17:50:14.646Z,85850.72
2022-11-15T17:52:41.576Z,85802.66
2022-11-15T17:55:08.863Z,85845.94
2022-11-15T17:57:35.786Z,85831.50
2022-11-15T18:00:03.117Z,85843.84
2022-11-15T18:02:30.911Z,85818.41
2022-11-15T18:04:57.873Z,85817.75
2022-11-15T18:07:24.909Z,85841.81
2022-11-15T18:09:51.875Z,85831.50
2022-11-15T18:12:19.848Z,85774.47
2022-11-15T18:14:46.809Z,85835.63
2022-11-15T18:17:13.705Z,85833.56
2022-11-15T18:19:40.675Z,85839.78
2022-11-15T18:22:10.015Z,85831.53
2022-11-15T18:24:38.736Z,85835.63
2022-11-15T18:27:06.772Z,85819.16
2022-11-15T18:29:35.640Z,85816.41
2022-11-15T18:32:05.158Z,85804.06
2022-11-15T18:34:34.090Z,85826.03
2022-11-15T18:37:02.893Z,85791.69
2022-11-15T18:39:30.437Z,85788.94
2022-11-15T18:41:58.256Z,85802.00
2022-11-15T18:44:25.473Z,85796.53
2022-11-15T18:46:52.432Z,85821.97
2022-11-15T18:49:20.510Z,85820.56
2022-11-15T18:51:47.906Z,85793.09
2022-11-15T18:54:16.323Z,85821.97
2022-11-15T18:56:47.170Z,85791.03
2022-11-15T18:59:15.410Z,85806.16
2022-11-15T19:01:48.851Z,85761.47
2022-11-15T19:04:18.777Z,85816.50
2022-11-15T19:06:47.710Z,85827.47
2022-11-15T19:09:16.552Z,85805.47
2022-11-15T19:11:46.492Z,85830.25
2022-11-15T19:14:16.571Z,85821.97
2022-11-15T19:16:46.364Z,85795.88
2022-11-15T19:19:15.798Z,85821.28
2022-11-15T19:21:43.482Z,85793.81
2022-11-15T19:24:13.631Z,85777.31
2022-11-15T19:26:40.888Z,85815.13
2022-11-15T19:29:12.335Z,85783.50
2022-11-15T19:31:39.544Z,85809.63
2022-11-15T19:34:07.222Z,85801.38
2022-11-15T19:36:38.400Z,85792.44
2022-11-15T19:39:10.002Z,85773.88
2022-11-15T19:41:38.767Z,85798.63
2022-11-15T19:44:06.824Z,85806.19
2022-11-15T19:46:34.562Z,85800.69
2022-11-15T19:49:01.905Z,85799.31
2022-11-15T19:51:30.931Z,85807.53
2022-11-15T19:54:06.511Z,85786.91
2022-11-15T19:56:35.043Z,85784.84
2022-11-15T19:59:02.913Z,85756.69
2022-11-15T20:01:32.975Z,85790.34
2022-11-15T20:04:00.909Z,85772.47
2022-11-15T20:06:30.512Z,85782.09
2022-11-15T20:08:57.988Z,85780.75
2022-11-15T20:11:26.005Z,85768.34
2022-11-15T20:14:02.234Z,85788.97
2022-11-15T20:16:30.102Z,85784.84
2022-11-15T20:18:57.085Z,85779.31
2022-11-15T20:21:24.195Z,85785.53
2022-11-15T20:23:51.893Z,85769.72
2022-11-15T20:26:20.197Z,85785.53
2022-11-15T20:28:48.340Z,85751.16
2022-11-15T20:31:16.418Z,85775.88
2022-11-15T20:33:43.550Z,85738.09
2022-11-15T20:36:13.467Z,85770.38
2022-11-15T20:38:40.564Z,85750.44
2022-11-15T20:41:07.714Z,85769.69
2022-11-15T20:43:34.982Z,85724.34
2022-11-15T20:46:01.923Z,85762.81
2022-11-15T20:48:29.120Z,85764.19
2022-11-15T20:51:11.468Z,85765.56
2022-11-15T20:53:38.511Z,85717.47
2022-11-15T20:56:10.401Z,85757.31
2022-11-15T20:58:37.857Z,85751.81
2022-11-15T21:01:06.372Z,85753.19
2022-11-15T21:03:33.823Z,85758.00
2022-11-15T21:06:01.017Z,85751.78
2022-11-15T21:08:28.143Z,85757.31
2022-11-15T21:11:13.713Z,85740.78
2022-11-15T21:13:40.637Z,85751.78
2022-11-15T21:16:08.155Z,85740.78
2022-11-15T21:18:35.295Z,85755.91
2022-11-15T21:21:04.800Z,85750.38
2022-11-15T21:23:31.890Z,85731.84
2022-11-15T21:25:59.123Z,85747.66
2022-11-15T21:28:26.388Z,85720.84
2022-11-15T21:30:57.665Z,85711.97
2022-11-15T21:33:27.522Z,85725.69
2022-11-15T21:35:55.643Z,85723.59
2022-11-15T21:38:24.213Z,85724.97
2022-11-15T21:40:54.303Z,85709.19
2022-11-15T21:43:21.546Z,85718.78
2022-11-15T21:46:06.452Z,85694.78
2022-11-15T21:48:35.515Z,85710.53
2022-11-15T21:51:05.550Z,85722.91
2022-11-15T21:53:33.374Z,85717.41
2022-11-15T21:56:01.652Z,85647.38
2022-11-15T21:58:29.434Z,85713.28
2022-11-15T22:01:15.181Z,85687.88
2022-11-15T22:03:42.890Z,85706.41
2022-11-15T22:06:16.089Z,85676.16
2022-11-15T22:08:45.761Z,85663.84
2022-11-15T22:11:12.848Z,85689.91
2022-11-15T22:13:40.061Z,85672.06
2022-11-15T22:16:07.902Z,85689.91
2022-11-15T22:18:35.044Z,85695.41
2022-11-15T22:21:04.794Z,85687.81
2022-11-15T22:23:33.293Z,85680.25
2022-11-15T22:26:00.636Z,85688.53
2022-11-15T22:28:27.808Z,85684.41
2022-11-15T22:30:55.491Z,85644.59
2022-11-15T22:33:25.039Z,85678.19
2022-11-15T22:35:52.698Z,85669.25
2022-11-15T22:38:20.170Z,85650.06
2022-11-15T22:40:47.701Z,85650.75
2022-11-15T22:43:16.973Z,85670.66
2022-11-15T22:45:52.209Z,85639.75
2022-11-15T22:48:21.436Z,85627.41
2022-11-15T22:50:48.671Z,85662.41
2022-11-15T22:53:15.600Z,85665.81
2022-11-15T22:55:42.839Z,85615.66
2022-11-15T22:58:09.983Z,85643.78
2022-11-15T23:00:37.148Z,85634.19
2022-11-15T23:03:04.612Z,85651.34
2022-11-15T23:05:32.112Z,85634.88
2022-11-15T23:07:59.132Z,85629.38
2022-11-15T23:10:44.431Z,85623.88
2022-11-15T23:13:17.572Z,85601.94
2022-11-15T23:16:23.442Z,85640.38
2022-11-15T23:18:52.018Z,85628.69
2022-11-15T23:21:46.108Z,85584.78
2022-11-15T23:24:14.222Z,85626.63
2022-11-15T23:26:42.265Z,85625.25
2022-11-15T23:29:10.962Z,85558.00
2022-11-15T23:32:01.968Z,85586.13
2022-11-15T23:34:31.434Z,85614.94
2022-11-15T23:36:59.689Z,85590.22
2022-11-15T23:39:26.802Z,85580.56
2022-11-15T23:41:54.059Z,85595.00
2022-11-15T23:44:21.425Z,85599.09
2022-11-15T23:46:48.491Z,85575.78
2022-11-15T23:49:15.637Z,85553.16
2022-11-15T23:51:42.749Z,85601.81
2022-11-15T23:54:10.058Z,85586.66
2022-11-15T23:56:37.305Z,85594.22
2022-11-15T23:59:05.091Z,85582.59
